Time;durP1;ratioP1;P1;durP2;ratioP2;P2;SDS_P1;SDS_P2;PMS_P1;PMS_P2;Temp;Humidity;BMP_temperature;BMP_pressure;BME280_temperature;BME280_humidity;BME280_pressure;Samples;Min_cycle;Max_cycle;Signal;HPM_P1;HPM_P2
2021/12/28 00:00:24;;;;;;;;;1.00;0.67;;;;;-147.17;100.00;49533.06;4975468;28;51146;-55
2021/12/28 00:02:50;;;;;;;;;1.00;0.00;;;;;-147.17;100.00;49535.03;4957085;28;51321;-55
2021/12/28 00:05:17;;;;;;;;;1.00;1.00;;;;;-147.17;100.00;49544.88;4962475;28;51596;-56
2021/12/28 00:07:42;;;;;;;;;1.00;1.00;;;;;-147.17;100.00;49503.53;4962382;28;50978;-55
2021/12/28 00:10:11;;;;;;;;;0.33;0.33;;;;;-147.17;100.00;49495.66;4975224;28;51074;-54
2021/12/28 00:12:38;;;;;;;;;1.00;0.00;;;;;-147.17;100.00;49481.88;4973976;28;51316;-56
2021/12/28 00:15:31;;;;;;;;;1.67;1.33;;;;;-147.17;100.00;49507.47;4975132;28;51113;-54
2021/12/28 00:17:59;;;;;;;;;1.00;1.00;;;;;-147.17;100.00;49505.50;4974079;28;51045;-54
2021/12/28 00:20:33;;;;;;;;;1.33;0.67;;;;;-147.17;100.00;49493.69;4974931;28;51201;-54
2021/12/28 00:22:59;;;;;;;;;1.67;0.33;;;;;-147.17;100.00;49533.06;4975605;28;51009;-55
2021/12/28 00:25:25;;;;;;;;;0.67;0.67;;;;;-147.17;100.00;49493.69;4974919;28;51737;-54
2021/12/28 00:27:52;;;;;;;;;2.67;2.67;;;;;-147.17;100.00;49462.19;4974925;28;51091;-54
2021/12/28 00:30:18;;;;;;;;;1.33;1.00;;;;;-147.17;100.00;49468.09;4974753;28;50957;-55
2021/12/28 00:32:46;;;;;;;;;1.00;0.00;;;;;-147.17;100.00;49485.81;4974410;28;51312;-55
2021/12/28 00:35:11;;;;;;;;;2.00;2.00;;;;;-147.17;100.00;49511.41;4974575;28;52415;-54
2021/12/28 00:37:37;;;;;;;;;0.00;0.00;;;;;-147.17;100.00;49515.34;4974551;28;51175;-54
2021/12/28 00:40:04;;;;;;;;;1.00;1.00;;;;;-147.17;100.00;49487.78;4974603;28;51424;-55
2021/12/28 00:42:30;;;;;;;;;0.00;0.00;;;;;-147.17;100.00;49523.22;4974854;28;51396;-55
2021/12/28 00:44:55;;;;;;;;;1.00;1.00;;;;;-147.17;100.00;49497.63;4974565;28;51012;-56
2021/12/28 00:47:20;;;;;;;;;0.00;0.00;;;;;-147.17;100.00;49495.66;4974185;28;51135;-54
2021/12/28 00:49:46;;;;;;;;;1.00;1.00;;;;;-147.17;100.00;49546.84;4974643;28;51099;-53
2021/12/28 00:52:11;;;;;;;;;0.00;0.00;;;;;-147.17;100.00;49509.44;4974624;28;51321;-53
2021/12/28 00:54:36;;;;;;;;;0.33;0.00;;;;;-147.17;100.00;49535.03;4974348;28;52915;-56
2021/12/28 00:57:02;;;;;;;;;1.00;1.00;;;;;-147.17;100.00;49521.25;4974500;28;50988;-54
2021/12/28 00:59:28;;;;;;;;;1.00;1.00;;;;;-147.17;100.00;49540.94;4973219;28;51212;-56
2021/12/28 01:01:54;;;;;;;;;0.00;0.00;;;;;-147.17;100.00;49519.28;4974591;28;51276;-55
2021/12/28 01:04:20;;;;;;;;;0.33;0.00;;;;;-147.17;100.00;49505.50;4973991;28;52045;-54
2021/12/28 01:06:45;;;;;;;;;0.00;0.00;;;;;-147.17;100.00;49517.31;4974174;28;51061;-55
2021/12/28 01:09:11;;;;;;;;;0.00;0.00;;;;;-147.17;100.00;49503.53;4973071;28;51021;-55
2021/12/28 01:11:36;;;;;;;;;1.00;1.00;;;;;-147.17;100.00;49503.53;4974337;28;51384;-55
2021/12/28 01:14:01;;;;;;;;;0.67;0.33;;;;;-147.17;100.00;49507.47;4973288;28;52890;-55
2021/12/28 01:16:27;;;;;;;;;1.33;0.67;;;;;-147.17;100.00;49560.59;4974424;28;51056;-55
2021/12/28 01:18:52;;;;;;;;;1.00;0.00;;;;;-147.17;100.00;49517.31;4974204;28;51028;-56
2021/12/28 01:21:19;;;;;;;;;0.00;0.00;;;;;-147.17;100.00;49523.22;4970644;28;51207;-55
2021/12/28 01:23:44;;;;;;;;;0.00;0.00;;;;;-147.17;100.00;49525.19;4958310;28;51858;-57
2021/12/28 01:26:09;;;;;;;;;0.33;0.33;;;;;-147.17;100.00;49548.81;4971126;28;50996;-54
2021/12/28 01:28:35;;;;;;;;;0.00;0.00;;;;;-147.17;100.00;49511.41;4974165;28;51015;-54
2021/12/28 01:31:00;;;;;;;;;0.00;0.00;;;;;-147.17;100.00;49521.25;4974186;28;51332;-56
2021/12/28 01:33:26;;;;;;;;;0.00;0.00;;;;;-147.17;100.00;49546.84;4973668;28;51865;-54
2021/12/28 01:35:52;;;;;;;;;0.00;0.00;;;;;-147.17;100.00;49501.56;4974246;28;50953;-56
2021/12/28 01:38:17;;;;;;;;;0.00;0.00;;;;;-147.17;100.00;49537.00;4973960;28;50914;-57
2021/12/28 01:40:43;;;;;;;;;0.00;0.00;;;;;-147.17;100.00;49497.63;4974285;28;51337;-56
2021/12/28 01:43:19;;;;;;;;;0.00;0.00;;;;;-147.17;100.00;49544.88;4973680;28;51667;-57
2021/12/28 01:45:54;;;;;;;;;0.00;0.00;;;;;-147.17;100.00;49517.31;4974037;28;51157;-56
2021/12/28 01:48:31;;;;;;;;;0.00;0.00;;;;;-147.17;100.00;49540.94;4973406;28;50966;-55
2021/12/28 01:51:10;;;;;;;;;0.00;0.00;;;;;-147.17;100.00;49523.22;4973992;28;51055;-56
2021/12/28 01:53:35;;;;;;;;;0.00;0.00;;;;;-147.17;100.00;49548.81;4957309;28;51247;-56
2021/12/28 01:56:08;;;;;;;;;0.00;0.00;;;;;-147.17;100.00;49529.13;4970491;28;51047;-54
2021/12/28 01:58:34;;;;;;;;;0.00;0.00;;;;;-147.17;100.00;49540.94;4974062;28;51080;-56
2021/12/28 02:01:00;;;;;;;;;0.00;0.00;;;;;-147.17;100.00;49511.41;4973676;28;50968;-56
2021/12/28 02:03:27;;;;;;;;;0.00;0.00;;;;;-147.17;100.00;49499.59;4972816;28;50953;-56
2021/12/28 02:05:53;;;;;;;;;0.00;0.00;;;;;-147.17;100.00;49501.56;4972292;28;50934;-56
2021/12/28 02:08:20;;;;;;;;;0.00;0.00;;;;;-147.17;100.00;49505.50;4973589;28;51162;-54
2021/12/28 02:10:47;;;;;;;;;0.00;0.00;;;;;-147.17;100.00;49529.13;4973488;28;51035;-54
2021/12/28 02:13:14;;;;;;;;;0.00;0.00;;;;;-147.17;100.00;49499.59;4973351;28;51999;-55
2021/12/28 02:15:39;;;;;;;;;0.00;0.00;;;;;-147.17;100.00;49538.97;4973554;28;50924;-55
2021/12/28 02:18:10;;;;;;;;;0.00;0.00;;;;;-147.17;100.00;49538.97;4973293;28;51059;-54
2021/12/28 02:20:37;;;;;;;;;0.00;0.00;;;;;-147.17;100.00;49552.72;4973506;28;51187;-55
2021/12/28 02:23:02;;;;;;;;;0.00;0.00;;;;;-147.17;100.00;49533.06;4973150;28;51265;-56
2021/12/28 02:25:28;;;;;;;;;0.00;0.00;;;;;-147.17;100.00;49538.97;4974827;28;51067;-57
2021/12/28 02:27:53;;;;;;;;;0.00;0.00;;;;;-147.17;100.00;49560.59;4976726;28;51094;-56
2021/12/28 02:30:21;;;;;;;;;0.00;0.00;;;;;-147.17;100.00;49603.91;4976898;28;51196;-56
2021/12/28 02:32:48;;;;;;;;;0.00;0.00;;;;;-147.17;100.00;49588.16;4976451;28;51922;-55
2021/12/28 02:35:18;;;;;;;;;0.00;0.00;;;;;-147.17;100.00;49611.78;4976458;28;51010;-54
2021/12/28 02:37:45;;;;;;;;;0.00;0.00;;;;;-147.17;100.00;49603.91;4976777;28;51051;-55
2021/12/28 02:40:14;;;;;;;;;0.00;0.00;;;;;-147.17;100.00;49619.66;4975846;28;51073;-55
2021/12/28 02:42:40;;;;;;;;;0.00;0.00;;;;;-147.17;100.00;49611.78;4975162;28;51713;-54
2021/12/28 02:45:14;;;;;;;;;0.00;0.00;;;;;-147.17;100.00;49623.59;4976697;28;51506;-55
2021/12/28 02:47:43;;;;;;;;;0.00;0.00;;;;;-147.17;100.00;49643.28;4974881;28;51028;-55
2021/12/28 02:50:17;;;;;;;;;0.00;0.00;;;;;-147.17;100.00;49619.66;4976812;28;51130;-54
2021/12/28 02:52:42;;;;;;;;;0.00;0.00;;;;;-147.17;100.00;49619.66;4976033;28;51227;-54
2021/12/28 02:55:10;;;;;;;;;0.00;0.00;;;;;-147.17;100.00;49603.91;4976297;28;51075;-55
2021/12/28 02:57:36;;;;;;;;;0.00;0.00;;;;;-147.17;100.00;49631.47;4976618;28;51255;-55
2021/12/28 03:00:05;;;;;;;;;0.00;0.00;;;;;-147.17;100.00;49601.94;4976527;28;51103;-55
2021/12/28 03:02:30;;;;;;;;;0.00;0.00;;;;;-147.17;100.00;49611.78;4975755;28;51976;-55
2021/12/28 03:04:56;;;;;;;;;0.00;0.00;;;;;-147.17;100.00;49584.22;4976059;28;51034;-55
2021/12/28 03:07:22;;;;;;;;;0.00;0.00;;;;;-147.17;100.00;49603.91;4976501;28;51733;-55
2021/12/28 03:09:48;;;;;;;;;1.00;0.00;;;;;-147.17;100.00;49605.88;4975241;28;51288;-54
2021/12/28 03:12:13;;;;;;;;;0.00;0.00;;;;;-147.17;100.00;49603.91;4975867;28;51008;-55
2021/12/28 03:14:39;;;;;;;;;0.00;0.00;;;;;-147.17;100.00;49598.00;4975994;28;51103;-55
2021/12/28 03:17:06;;;;;;;;;0.00;0.00;;;;;-147.17;100.00;49605.88;4976010;28;51119;-55
2021/12/28 03:19:32;;;;;;;;;0.00;0.00;;;;;-147.17;100.00;49619.66;4976332;28;50925;-54
2021/12/28 03:22:00;;;;;;;;;0.00;0.00;;;;;-147.17;100.00;49601.94;4971969;28;52433;-53
2021/12/28 03:24:26;;;;;;;;;0.00;0.00;;;;;-147.17;100.00;49611.78;4973766;28;51069;-55
2021/12/28 03:26:52;;;;;;;;;0.00;0.00;;;;;-147.17;100.00;49647.22;4975836;28;50911;-54
2021/12/28 03:29:17;;;;;;;;;1.00;0.00;;;;;-147.17;100.00;49623.59;4974603;28;51492;-55
2021/12/28 03:31:43;;;;;;;;;0.00;0.00;;;;;-147.17;100.00;49598.00;4975947;28;50927;-54
2021/12/28 03:34:08;;;;;;;;;0.00;0.00;;;;;-147.17;100.00;49590.13;4975575;28;51076;-55
2021/12/28 03:36:34;;;;;;;;;0.00;0.00;;;;;-147.17;100.00;49588.16;4975278;28;51085;-55
2021/12/28 03:39:00;;;;;;;;;0.00;0.00;;;;;-147.17;100.00;49619.66;4976062;28;51311;-55
2021/12/28 03:41:28;;;;;;;;;1.00;0.00;;;;;-147.17;100.00;49596.03;4975535;28;52354;-55
2021/12/28 03:43:55;;;;;;;;;0.00;0.00;;;;;-147.17;100.00;49588.16;4975479;28;51064;-55
2021/12/28 03:46:24;;;;;;;;;0.00;0.00;;;;;-147.17;100.00;49599.97;4975416;28;51246;-56
2021/12/28 03:48:49;;;;;;;;;0.00;0.00;;;;;-147.17;100.00;49603.91;4975549;28;50929;-56
2021/12/28 03:51:15;;;;;;;;;0.00;0.00;;;;;-147.17;100.00;49609.81;4956105;28;52684;-55
2021/12/28 03:53:41;;;;;;;;;0.00;0.00;;;;;-147.17;100.00;49609.81;4956687;28;51348;-55
2021/12/28 03:56:09;;;;;;;;;0.00;0.00;;;;;-147.17;100.00;49627.53;4963362;28;51152;-55
2021/12/28 03:58:36;;;;;;;;;0.00;0.00;;;;;-147.17;100.00;49635.41;4968465;28;51215;-55
2021/12/28 04:01:03;;;;;;;;;0.00;0.00;;;;;-147.17;100.00;49639.34;4955258;28;54092;-56
2021/12/28 04:03:29;;;;;;;;;0.00;0.00;;;;;-147.17;100.00;49631.47;4954279;28;51211;-55
2021/12/28 04:05:55;;;;;;;;;0.00;0.00;;;;;-147.17;100.00;49625.56;4955939;28;51138;-55
2021/12/28 04:08:22;;;;;;;;;1.00;0.00;;;;;-147.17;100.00;49655.09;4954962;28;51340;-56
2021/12/28 04:10:56;;;;;;;;;0.33;0.33;;;;;-147.17;100.00;49599.97;4955025;28;52765;-55
2021/12/28 04:13:23;;;;;;;;;0.00;0.00;;;;;-147.17;100.00;49623.59;4957137;28;51464;-56
2021/12/28 04:15:49;;;;;;;;;0.00;0.00;;;;;-147.17;100.00;49607.84;4956337;28;51181;-56
2021/12/28 04:18:16;;;;;;;;;0.00;0.00;;;;;-147.17;100.00;49631.47;4953877;28;51795;-56
2021/12/28 04:20:42;;;;;;;;;0.00;0.00;;;;;-147.17;100.00;49627.53;4952280;28;51359;-56
2021/12/28 04:23:08;;;;;;;;;0.00;0.00;;;;;-147.17;100.00;49660.97;4954884;28;51177;-55
2021/12/28 04:25:33;;;;;;;;;1.00;0.00;;;;;-147.17;100.00;49659.03;4954862;28;53156;-55
2021/12/28 04:27:59;;;;;;;;;0.00;0.00;;;;;-147.17;100.00;49629.50;4955765;28;51362;-56
2021/12/28 04:30:25;;;;;;;;;0.33;0.33;;;;;-147.17;100.00;49666.88;4955220;28;51884;-55
2021/12/28 04:32:50;;;;;;;;;0.00;0.00;;;;;-147.17;100.00;49653.13;4954332;28;51140;-55
2021/12/28 04:35:16;;;;;;;;;0.00;0.00;;;;;-147.17;100.00;49623.59;4955274;28;51342;-55
2021/12/28 04:37:42;;;;;;;;;0.00;0.00;;;;;-147.17;100.00;49639.34;4954865;28;51237;-54
2021/12/28 04:40:10;;;;;;;;;0.00;0.00;;;;;-147.17;100.00;49613.75;4955168;28;52793;-56
2021/12/28 04:42:35;;;;;;;;;0.00;0.00;;;;;-147.17;100.00;49660.97;4949591;28;51232;-55
2021/12/28 04:45:02;;;;;;;;;1.00;0.00;;;;;-147.17;100.00;49659.03;4955046;28;53133;-56
2021/12/28 04:47:27;;;;;;;;;1.00;0.00;;;;;-147.17;100.00;49651.16;4954423;28;51153;-56
2021/12/28 04:49:53;;;;;;;;;0.00;0.00;;;;;-147.17;100.00;49623.59;4954185;28;51762;-55
2021/12/28 04:52:19;;;;;;;;;0.00;0.00;;;;;-147.17;100.00;49611.78;4953883;28;53292;-55
2021/12/28 04:54:44;;;;;;;;;0.00;0.00;;;;;-147.17;100.00;49664.91;4951694;28;53387;-55
2021/12/28 04:57:10;;;;;;;;;0.00;0.00;;;;;-147.17;100.00;49651.16;4955119;28;53041;-55
2021/12/28 04:59:36;;;;;;;;;0.00;0.00;;;;;-147.17;100.00;49627.53;4951921;28;51241;-56
2021/12/28 05:02:01;;;;;;;;;0.33;0.00;;;;;-147.17;100.00;49672.78;4952203;28;52777;-56
2021/12/28 05:04:27;;;;;;;;;2.00;1.00;;;;;-147.17;100.00;49674.75;4953028;28;51402;-55
2021/12/28 05:06:53;;;;;;;;;1.00;1.00;;;;;-147.17;100.00;49627.53;4954043;28;51409;-55
2021/12/28 05:09:19;;;;;;;;;0.33;0.00;;;;;-147.17;100.00;49651.16;4954521;28;53204;-55
2021/12/28 05:11:45;;;;;;;;;0.00;0.00;;;;;-147.17;100.00;49653.13;4953799;28;51190;-55
2021/12/28 05:14:11;;;;;;;;;1.00;0.00;;;;;-147.17;100.00;49678.69;4953557;28;51243;-55
2021/12/28 05:16:37;;;;;;;;;0.00;0.00;;;;;-147.17;100.00;49674.75;4953925;28;51379;-54
2021/12/28 05:19:04;;;;;;;;;0.00;0.00;;;;;-147.17;100.00;49662.94;4951806;28;53363;-56
2021/12/28 05:21:30;;;;;;;;;0.00;0.00;;;;;-147.17;100.00;49682.63;4952519;28;53435;-56
2021/12/28 05:23:56;;;;;;;;;2.00;1.00;;;;;-147.17;100.00;49651.16;4950599;28;51129;-56
2021/12/28 05:26:22;;;;;;;;;1.00;0.00;;;;;-147.17;100.00;49647.22;4956083;28;51332;-56
2021/12/28 05:28:48;;;;;;;;;0.00;0.00;;;;;-147.17;100.00;49643.28;4968257;28;51982;-54
2021/12/28 05:31:13;;;;;;;;;1.00;0.00;;;;;-147.17;100.00;49657.06;4951428;28;51201;-56
2021/12/28 05:33:40;;;;;;;;;1.00;0.00;;;;;-147.17;100.00;49643.28;4951282;28;52984;-56
2021/12/28 05:36:06;;;;;;;;;1.00;1.00;;;;;-147.17;100.00;49668.84;4950448;28;51381;-56
2021/12/28 05:38:31;;;;;;;;;0.67;0.00;;;;;-147.17;100.00;49672.78;4953117;28;51178;-55
2021/12/28 05:40:57;;;;;;;;;0.00;0.00;;;;;-147.17;100.00;49666.88;4955840;28;51217;-56
2021/12/28 05:43:22;;;;;;;;;0.00;0.00;;;;;-147.17;100.00;49700.34;4952243;28;51327;-56
2021/12/28 05:45:47;;;;;;;;;1.00;0.00;;;;;-147.17;100.00;49678.69;4951597;28;51489;-56
2021/12/28 05:48:13;;;;;;;;;0.00;0.00;;;;;-147.17;100.00;49655.09;4955874;28;51249;-56
2021/12/28 05:50:39;;;;;;;;;1.00;1.00;;;;;-147.17;100.00;49611.78;4951824;28;51184;-56
2021/12/28 05:53:04;;;;;;;;;0.33;0.33;;;;;-147.17;100.00;49623.59;4953075;28;53308;-56
2021/12/28 05:55:31;;;;;;;;;0.00;0.00;;;;;-147.17;100.00;49682.63;4953271;28;51433;-57
2021/12/28 05:57:57;;;;;;;;;2.00;1.00;;;;;-147.17;100.00;49678.69;4951496;28;52298;-56
2021/12/28 06:00:23;;;;;;;;;1.00;0.67;;;;;-147.17;100.00;49700.34;4952591;28;51282;-55
2021/12/28 06:02:48;;;;;;;;;0.00;0.00;;;;;-147.17;100.00;49698.38;4952170;28;53363;-55
2021/12/28 06:05:14;;;;;;;;;0.33;0.33;;;;;-147.17;100.00;49666.88;4953984;28;53262;-54
2021/12/28 06:07:39;;;;;;;;;3.00;0.00;;;;;-147.17;100.00;49651.16;4954207;28;52004;-56
2021/12/28 06:10:06;;;;;;;;;0.67;0.00;;;;;-147.17;100.00;49651.16;4956544;28;51472;-57
2021/12/28 06:12:32;;;;;;;;;1.00;0.00;;;;;-147.17;100.00;49664.91;4951758;28;53662;-56
2021/12/28 06:14:57;;;;;;;;;1.00;1.00;;;;;-147.17;100.00;49664.91;4951562;28;51258;-56
2021/12/28 06:17:23;;;;;;;;;1.67;0.00;;;;;-147.17;100.00;49682.63;4953610;28;51724;-55
2021/12/28 06:19:48;;;;;;;;;0.00;0.00;;;;;-147.17;100.00;49698.38;4953782;28;51332;-55
2021/12/28 06:22:14;;;;;;;;;0.00;0.00;;;;;-147.17;100.00;49694.44;4953614;28;53193;-55
2021/12/28 06:24:40;;;;;;;;;1.00;0.00;;;;;-147.17;100.00;49684.59;4954134;28;52482;-56
2021/12/28 06:27:05;;;;;;;;;2.00;0.00;;;;;-147.17;100.00;49670.81;4952726;28;51924;-55
2021/12/28 06:29:31;;;;;;;;;2.00;0.00;;;;;-147.17;100.00;49733.81;4953072;28;53323;-55
2021/12/28 06:31:56;;;;;;;;;1.33;1.00;;;;;-147.17;100.00;49731.84;4952115;28;53400;-54
2021/12/28 06:34:22;;;;;;;;;0.67;0.00;;;;;-147.17;100.00;49688.53;4952100;28;51369;-55
2021/12/28 06:36:47;;;;;;;;;1.00;1.00;;;;;-147.17;100.00;49714.13;4948786;28;51705;-56
2021/12/28 06:39:12;;;;;;;;;2.00;1.00;;;;;-147.17;100.00;49712.16;4950740;28;52756;-56
2021/12/28 06:41:38;;;;;;;;;0.00;0.00;;;;;-147.17;100.00;49733.81;4950520;28;51147;-56
2021/12/28 06:44:05;;;;;;;;;1.00;0.00;;;;;-147.17;100.00;49729.88;4951309;28;51072;-57
2021/12/28 06:46:31;;;;;;;;;2.00;0.00;;;;;-147.17;100.00;49688.53;4950771;28;53401;-56
2021/12/28 06:48:56;;;;;;;;;2.67;1.00;;;;;-147.17;100.00;49686.56;4951570;28;51422;-56
2021/12/28 06:51:22;;;;;;;;;1.67;1.67;;;;;-147.17;100.00;49710.19;4950007;28;51305;-56
2021/12/28 06:53:47;;;;;;;;;3.00;1.67;;;;;-147.17;100.00;49718.06;4947497;28;51447;-56
2021/12/28 06:56:13;;;;;;;;;3.33;2.00;;;;;-147.17;100.00;49668.84;4948946;28;51754;-55
2021/12/28 06:58:40;;;;;;;;;0.67;0.00;;;;;-147.17;100.00;49710.19;4950031;28;53372;-55
2021/12/28 07:01:06;;;;;;;;;0.00;0.00;;;;;-147.17;100.00;49710.19;4950944;28;51246;-56
2021/12/28 07:03:31;;;;;;;;;2.33;2.00;;;;;-147.17;100.00;49674.75;4949791;28;51485;-56
2021/12/28 07:05:57;;;;;;;;;3.00;1.67;;;;;-147.17;100.00;49678.69;4949119;28;51992;-55
2021/12/28 07:08:22;;;;;;;;;4.67;3.00;;;;;-147.17;100.00;49674.75;4949999;28;51242;-55
2021/12/28 07:10:47;;;;;;;;;2.00;1.00;;;;;-147.17;100.00;49682.63;4950986;28;51411;-56
2021/12/28 07:13:13;;;;;;;;;4.00;1.00;;;;;-147.17;100.00;49680.66;4953716;28;51109;-59
2021/12/28 07:15:39;;;;;;;;;2.67;2.00;;;;;-147.17;100.00;49702.31;4951934;28;53176;-56
2021/12/28 07:18:05;;;;;;;;;0.00;0.00;;;;;-147.17;100.00;49741.69;4955022;28;51212;-54
2021/12/28 07:20:31;;;;;;;;;2.00;1.67;;;;;-147.17;100.00;49714.13;4954903;28;51246;-54
2021/12/28 07:22:56;;;;;;;;;1.00;1.00;;;;;-147.17;100.00;49706.25;4958332;28;51592;-53
2021/12/28 07:25:22;;;;;;;;;4.00;3.00;;;;;-147.17;100.00;49716.09;4952794;28;52129;-55
2021/12/28 07:27:47;;;;;;;;;1.67;1.00;;;;;-147.17;100.00;49704.28;4953602;28;51242;-56
2021/12/28 07:30:13;;;;;;;;;2.00;1.33;;;;;-147.17;100.00;49702.31;4968467;28;51419;-54
2021/12/28 07:32:40;;;;;;;;;3.00;2.00;;;;;-147.17;100.00;49696.41;4954226;28;51426;-54
2021/12/28 07:35:07;;;;;;;;;2.33;1.67;;;;;-147.17;100.00;49680.66;4955477;28;51255;-55
2021/12/28 07:37:33;;;;;;;;;2.00;1.67;;;;;-147.17;100.00;49712.16;4970226;28;51190;-54
2021/12/28 07:39:58;;;;;;;;;1.67;1.67;;;;;-147.17;100.00;49670.81;4952892;28;52339;-54
2021/12/28 07:42:24;;;;;;;;;1.67;1.33;;;;;-147.17;100.00;49682.63;4951762;28;51580;-55
2021/12/28 07:44:49;;;;;;;;;5.00;1.67;;;;;-147.17;100.00;49666.88;4972537;28;54195;-56
2021/12/28 07:47:15;;;;;;;;;2.00;2.00;;;;;-147.17;100.00;49670.81;4954820;28;51460;-56
2021/12/28 07:49:41;;;;;;;;;1.00;1.00;;;;;-147.17;100.00;49641.31;4953800;28;51142;-56
2021/12/28 07:52:06;;;;;;;;;4.00;3.33;;;;;-147.17;100.00;49670.81;4951600;28;51430;-56
2021/12/28 07:54:32;;;;;;;;;3.00;3.00;;;;;-147.17;100.00;49611.78;4952170;28;51410;-55
2021/12/28 07:56:57;;;;;;;;;8.00;6.00;;;;;-147.17;100.00;49621.63;4952446;28;52797;-55
2021/12/28 07:59:22;;;;;;;;;5.67;4.67;;;;;-147.17;100.00;49653.13;4954302;28;51178;-55
2021/12/28 08:01:48;;;;;;;;;4.00;3.00;;;;;-147.17;100.00;49615.72;4954053;28;51161;-55
2021/12/28 08:04:13;;;;;;;;;3.00;2.00;;;;;-147.17;100.00;49596.03;4951886;28;54462;-56
2021/12/28 08:06:39;;;;;;;;;3.00;3.00;;;;;-147.17;100.00;49615.72;4954613;28;51252;-55
2021/12/28 08:09:05;;;;;;;;;4.67;2.67;;;;;-147.17;100.00;49592.09;4954092;28;51175;-55
2021/12/28 08:11:30;;;;;;;;;2.00;2.00;;;;;-147.17;100.00;49619.66;4968195;28;51628;-56
2021/12/28 08:13:56;;;;;;;;;2.67;2.00;;;;;-147.17;100.00;49588.16;4953999;28;51291;-55
2021/12/28 08:16:21;;;;;;;;;4.33;2.00;;;;;-147.17;100.00;49578.31;4952296;28;51242;-55
2021/12/28 08:18:47;;;;;;;;;3.00;2.00;;;;;-147.17;100.00;49572.41;4954187;28;51292;-56
2021/12/28 08:21:12;;;;;;;;;4.00;3.00;;;;;-147.17;100.00;49556.66;4951557;28;51397;-55
2021/12/28 08:23:38;;;;;;;;;2.00;2.00;;;;;-147.17;100.00;49566.50;4952232;28;51152;-55
2021/12/28 08:26:03;;;;;;;;;1.33;1.33;;;;;-147.17;100.00;49517.31;4952751;28;53589;-55
2021/12/28 08:28:29;;;;;;;;;2.00;1.00;;;;;-147.17;100.00;49521.25;4953294;28;53030;-55
2021/12/28 08:30:56;;;;;;;;;1.00;1.00;;;;;-147.17;100.00;49495.66;4953437;28;51499;-55
2021/12/28 08:33:22;;;;;;;;;2.67;1.33;;;;;-147.17;100.00;49491.72;4952722;28;52764;-55
2021/12/28 08:35:47;;;;;;;;;2.00;1.00;;;;;-147.17;100.00;49458.25;4953691;28;51194;-54
2021/12/28 08:38:13;;;;;;;;;3.00;2.00;;;;;-147.17;100.00;49474.00;4951813;28;51281;-56
2021/12/28 08:40:41;;;;;;;;;1.67;1.00;;;;;-147.17;100.00;49452.34;4954795;28;51481;-56
2021/12/28 08:43:07;;;;;;;;;2.00;1.33;;;;;-147.17;100.00;49448.44;4952141;28;51335;-56
2021/12/28 08:45:34;;;;;;;;;3.00;2.00;;;;;-147.17;100.00;49436.63;4951902;28;51266;-56
2021/12/28 08:48:00;;;;;;;;;3.00;2.67;;;;;-147.17;100.00;49462.19;4953738;28;51297;-54
2021/12/28 08:50:25;;;;;;;;;4.00;3.00;;;;;-147.17;100.00;49434.66;4952098;28;51190;-57
2021/12/28 08:52:51;;;;;;;;;2.00;2.00;;;;;-147.17;100.00;49428.75;4954836;28;51545;-55
2021/12/28 08:55:18;;;;;;;;;5.00;4.33;;;;;-147.17;100.00;49452.34;4953101;28;51252;-55
2021/12/28 08:57:44;;;;;;;;;5.67;3.67;;;;;-147.17;100.00;49450.41;4953980;28;51457;-54
2021/12/28 09:00:15;;;;;;;;;3.00;3.00;;;;;-147.17;100.00;49424.81;4953323;28;51239;-55
2021/12/28 09:02:40;;;;;;;;;3.00;2.00;;;;;-147.17;100.00;49450.41;4949174;28;53486;-55
2021/12/28 09:05:07;;;;;;;;;3.67;3.00;;;;;-147.17;100.00;49444.50;4952474;28;51217;-56
2021/12/28 09:07:33;;;;;;;;;5.67;4.67;;;;;-147.17;100.00;49448.44;4951527;28;51503;-56
2021/12/28 09:09:59;;;;;;;;;2.00;2.00;;;;;-147.17;100.00;49438.59;4953115;28;54197;-54
2021/12/28 09:12:25;;;;;;;;;1.00;1.00;;;;;-147.17;100.00;49497.63;4952530;28;52759;-55
2021/12/28 09:14:50;;;;;;;;;0.00;0.00;;;;;-147.17;100.00;49537.00;4953754;28;51264;-57
2021/12/28 09:17:16;;;;;;;;;3.00;2.33;;;;;-147.17;100.00;49485.81;4952775;28;51453;-55
2021/12/28 09:19:41;;;;;;;;;2.00;2.00;;;;;-147.17;100.00;49519.28;4950344;28;52268;-56
2021/12/28 09:22:07;;;;;;;;;2.33;2.33;;;;;-147.17;100.00;49521.25;4951035;28;51993;-55
2021/12/28 09:24:32;;;;;;;;;6.00;4.67;;;;;-147.17;100.00;49562.56;4949456;28;51266;-54
2021/12/28 09:26:58;;;;;;;;;1.33;0.67;;;;;-147.17;100.00;49566.50;4954560;28;51113;-56
2021/12/28 09:29:29;;;;;;;;;2.00;2.00;;;;;-147.17;100.00;49560.59;4955485;28;51129;-55
2021/12/28 09:31:55;;;;;;;;;3.00;2.00;;;;;-147.17;100.00;49613.75;4953192;28;52958;-54
2021/12/28 09:34:21;;;;;;;;;4.33;2.67;;;;;-147.17;100.00;49619.66;4952552;28;51202;-55
2021/12/28 09:36:46;;;;;;;;;1.33;1.33;;;;;-147.17;100.00;49666.88;4951216;28;51151;-56
2021/12/28 09:39:11;;;;;;;;;4.00;1.00;;;;;-147.17;100.00;49708.22;4953104;28;51344;-55
2021/12/28 09:41:37;;;;;;;;;2.00;2.00;;;;;-147.17;100.00;49725.94;4950515;28;51422;-54
2021/12/28 09:44:02;;;;;;;;;1.67;1.67;;;;;-147.17;100.00;49761.38;4949439;28;51236;-56
2021/12/28 09:46:28;;;;;;;;;2.67;2.33;;;;;-147.17;100.00;49722.00;4963106;28;51186;-55
2021/12/28 09:48:53;;;;;;;;;3.67;2.67;;;;;-147.17;100.00;49749.56;4953061;28;51369;-55
2021/12/28 09:51:19;;;;;;;;;3.00;3.00;;;;;-147.17;100.00;49792.84;4949813;28;52627;-56
2021/12/28 09:53:44;;;;;;;;;4.67;4.00;;;;;-147.17;100.00;49741.69;4949504;28;51317;-56
2021/12/28 09:56:10;;;;;;;;;3.00;2.00;;;;;-147.17;100.00;49834.19;4963686;28;53498;-56
2021/12/28 09:58:37;;;;;;;;;4.00;3.00;;;;;-147.17;100.00;49796.78;4960056;28;51263;-57
2021/12/28 10:01:08;;;;;;;;;3.33;3.00;;;;;-147.17;100.00;49812.53;4950704;28;51820;-55
2021/12/28 10:03:35;;;;;;;;;5.00;3.00;;;;;-147.17;100.00;49816.47;4949825;28;53122;-56
2021/12/28 10:06:14;;;;;;;;;3.00;3.00;;;;;-147.17;100.00;49753.50;4948417;28;51475;-55
2021/12/28 10:08:39;;;;;;;;;5.00;3.67;;;;;-147.17;100.00;49757.44;4950308;28;51394;-55
2021/12/28 10:11:05;;;;;;;;;2.00;2.00;;;;;-147.17;100.00;49794.81;4947149;28;51301;-55
2021/12/28 10:13:30;;;;;;;;;4.33;3.00;;;;;-147.17;100.00;49816.47;4963925;28;51347;-55
2021/12/28 10:15:55;;;;;;;;;2.00;1.67;;;;;-147.17;100.00;49901.13;4962418;28;51745;-56
2021/12/28 10:18:21;;;;;;;;;4.00;4.00;;;;;-147.17;100.00;49962.13;4950191;28;51281;-55
2021/12/28 10:20:48;;;;;;;;;2.33;2.00;;;;;-147.17;100.00;50001.50;4950225;28;51363;-55
2021/12/28 10:23:17;;;;;;;;;3.00;2.33;;;;;-147.17;100.00;49973.94;4950813;28;53091;-55
2021/12/28 10:25:50;;;;;;;;;2.00;1.00;;;;;-147.17;100.00;49905.06;4951474;28;52163;-56
2021/12/28 10:28:18;;;;;;;;;3.00;3.00;;;;;-147.17;100.00;49895.22;4949543;28;51145;-56
2021/12/28 10:30:47;;;;;;;;;4.33;2.00;;;;;-147.17;100.00;49907.03;4951854;28;53351;-56
2021/12/28 10:33:16;;;;;;;;;6.00;4.67;;;;;-147.17;100.00;49883.41;4951905;28;53084;-55
2021/12/28 10:35:54;;;;;;;;;1.33;1.00;;;;;-147.17;100.00;49999.53;4953135;28;53454;-55
2021/12/28 10:38:27;;;;;;;;;7.67;3.67;;;;;-147.17;100.00;50009.38;4952480;28;52637;-56
2021/12/28 10:40:57;;;;;;;;;5.00;3.67;;;;;-147.17;100.00;49895.22;4948503;28;51942;-55
2021/12/28 10:43:27;;;;;;;;;5.67;4.33;;;;;-147.17;100.00;49879.47;4949977;28;51534;-55
2021/12/28 10:46:15;;;;;;;;;5.00;3.67;;;;;-147.17;100.00;49879.47;4951863;28;51151;-55
2021/12/28 10:48:46;;;;;;;;;7.00;5.00;;;;;-147.17;100.00;49946.38;4961106;28;53247;-55
2021/12/28 10:51:15;;;;;;;;;4.67;3.00;;;;;-147.17;100.00;49873.56;4952687;28;51799;-54
2021/12/28 10:54:33;;;;;;;;;8.00;7.00;;;;;-147.17;100.00;49836.16;4953829;28;51483;-55
2021/12/28 10:56:39;;;;;;;;;8.67;6.00;;;;;-147.17;100.00;49832.22;4951855;28;51601;-57
2021/12/28 10:59:07;;;;;;;;;5.67;4.00;;;;;-147.17;100.00;49930.63;4953118;28;51281;-55
2021/12/28 11:01:37;;;;;;;;;6.00;4.00;;;;;-147.17;100.00;49879.47;4952992;28;52154;-57
2021/12/28 11:04:11;;;;;;;;;7.67;5.33;;;;;-147.17;100.00;49836.16;4952750;28;51194;-56
2021/12/28 11:06:38;;;;;;;;;4.00;3.33;;;;;-147.17;100.00;49846.00;4952225;28;51255;-55